Time;durP1;ratioP1;P1;durP2;ratioP2;P2;SDS_P1;SDS_P2;PMS_P1;PMS_P2;Temp;Humidity;BMP_temperature;BMP_pressure;BME280_temperature;BME280_humidity;BME280_pressure;Samples;Min_cycle;Max_cycle;Signal;HPM_P1;HPM_P2
2021/09/15 00:00:24;;;;;;;9.80;7.60;;;;;;;17.97;100.00;100427.84;6366093;23;20315;-76
2021/09/15 00:02:54;;;;;;;11.77;7.57;;;;;;;17.93;100.00;100427.19;6366235;23;20312;-81
2021/09/15 00:05:24;;;;;;;8.80;6.60;;;;;;;17.93;100.00;100428.97;6365906;23;20020;-81
2021/09/15 00:07:55;;;;;;;9.60;7.45;;;;;;;17.91;100.00;100423.81;6366082;23;20245;-81
2021/09/15 00:10:25;;;;;;;9.23;6.60;;;;;;;17.88;100.00;100415.22;6365985;23;20412;-82
2021/09/15 00:12:55;;;;;;;8.82;6.90;;;;;;;17.83;100.00;100417.34;6366307;23;20225;-82
2021/09/15 00:15:25;;;;;;;12.80;7.40;;;;;;;17.83;100.00;100414.69;6366801;23;20430;-79
2021/09/15 00:17:56;;;;;;;8.35;7.13;;;;;;;17.77;100.00;100404.50;6366140;23;20259;-77
2021/09/15 00:20:26;;;;;;;10.15;7.35;;;;;;;17.79;100.00;100411.41;6366640;23;20445;-78
2021/09/15 00:22:56;;;;;;;9.70;7.47;;;;;;;17.75;100.00;100406.41;6365749;23;20009;-78
2021/09/15 00:25:26;;;;;;;9.30;7.60;;;;;;;17.69;100.00;100406.84;6366000;23;20008;-77
2021/09/15 00:27:57;;;;;;;9.60;7.87;;;;;;;17.70;100.00;100412.03;6366598;23;20270;-77
2021/09/15 00:30:27;;;;;;;9.88;7.38;;;;;;;17.70;100.00;100406.75;6365839;23;20237;-80
2021/09/15 00:32:58;;;;;;;10.35;7.63;;;;;;;17.71;100.00;100399.66;6367229;23;20327;-80
2021/09/15 00:35:28;;;;;;;9.57;7.25;;;;;;;17.79;100.00;100400.81;6359664;23;20080;-79
2021/09/15 00:37:59;;;;;;;11.95;8.32;;;;;;;17.80;100.00;100406.97;6366426;23;20088;-80
2021/09/15 00:40:29;;;;;;;10.85;7.60;;;;;;;17.81;100.00;100406.03;6366369;23;20002;-79
2021/09/15 00:42:59;;;;;;;10.05;7.78;;;;;;;17.78;100.00;100395.63;6366537;23;20009;-77
2021/09/15 00:45:30;;;;;;;10.88;8.07;;;;;;;17.85;100.00;100404.84;6366644;23;20001;-76
2021/09/15 00:48:00;;;;;;;10.90;7.60;;;;;;;17.83;100.00;100398.81;6366777;23;20014;-76
2021/09/15 00:50:30;;;;;;;10.20;7.78;;;;;;;17.83;100.00;100404.13;6366783;23;20352;-76
2021/09/15 00:53:01;;;;;;;9.68;7.93;;;;;;;17.84;100.00;100403.16;6366227;23;20022;-76
2021/09/15 00:55:31;;;;;;;11.48;7.75;;;;;;;17.82;100.00;100399.78;6366126;23;20002;-76
2021/09/15 00:58:02;;;;;;;9.77;7.53;;;;;;;17.74;100.00;100399.44;6366989;23;19997;-77
2021/09/15 01:00:32;;;;;;;11.50;8.13;;;;;;;17.81;100.00;100391.00;6367095;23;20440;-76
2021/09/15 01:03:02;;;;;;;11.75;8.35;;;;;;;17.81;100.00;100384.88;6459384;22;20484;-76
2021/09/15 01:05:33;;;;;;;13.15;8.43;;;;;;;17.79;100.00;100386.78;6366355;23;20383;-76
2021/09/15 01:08:03;;;;;;;10.50;7.90;;;;;;;17.80;100.00;100384.00;6366601;23;19997;-76
2021/09/15 01:10:34;;;;;;;10.25;7.88;;;;;;;17.75;100.00;100385.25;6366278;23;20005;-77
2021/09/15 01:13:04;;;;;;;12.13;8.38;;;;;;;17.71;100.00;100389.06;6366370;23;20009;-77
2021/09/15 01:15:34;;;;;;;10.27;8.10;;;;;;;17.68;100.00;100389.28;6365669;23;20500;-77
2021/09/15 01:18:19;;;;;;;11.07;8.30;;;;;;;17.64;100.00;100382.53;6366067;23;20009;-76
2021/09/15 01:20:50;;;;;;;10.00;8.32;;;;;;;17.67;100.00;100371.72;6365862;23;20014;-77
2021/09/15 01:23:20;;;;;;;10.60;8.32;;;;;;;17.65;100.00;100382.41;6366135;23;20122;-77
2021/09/15 01:25:51;;;;;;;10.63;8.45;;;;;;;17.60;100.00;100378.38;6365833;23;20050;-77
2021/09/15 01:28:21;;;;;;;9.77;8.27;;;;;;;17.55;100.00;100383.97;6366431;23;20004;-77
2021/09/15 01:30:52;;;;;;;10.35;8.50;;;;;;;17.54;100.00;100377.00;6365930;23;20013;-77
2021/09/15 01:33:22;;;;;;;9.95;8.32;;;;;;;17.52;100.00;100384.16;6366195;23;20448;-77
2021/09/15 01:35:53;;;;;;;12.65;8.70;;;;;;;17.50;100.00;100388.72;6366081;23;20370;-77
2021/09/15 01:38:23;;;;;;;10.55;8.57;;;;;;;17.46;100.00;100389.03;6366119;23;20076;-77
2021/09/15 01:40:53;;;;;;;10.52;8.82;;;;;;;17.49;100.00;100388.84;6366929;23;20005;-77
2021/09/15 01:43:23;;;;;;;10.80;8.15;;;;;;;17.64;100.00;100379.88;6366513;23;20005;-77
2021/09/15 01:45:54;;;;;;;10.35;8.35;;;;;;;17.65;100.00;100377.09;6366541;23;20453;-76
2021/09/15 01:48:24;;;;;;;11.57;8.57;;;;;;;17.74;100.00;100373.88;6366409;23;20014;-77
2021/09/15 01:50:54;;;;;;;14.55;8.07;;;;;;;17.92;100.00;100377.03;6366762;23;20233;-77
2021/09/15 01:53:24;;;;;;;11.50;8.30;;;;;;;17.85;100.00;100373.94;6366739;23;20012;-77
2021/09/15 01:55:55;;;;;;;14.23;8.63;;;;;;;17.73;100.00;100366.03;6365914;23;20241;-77
2021/09/15 01:58:25;;;;;;;10.93;8.80;;;;;;;17.74;100.00;100371.22;6366469;23;20229;-77
2021/09/15 02:00:55;;;;;;;13.15;9.43;;;;;;;17.68;100.00;100373.44;6365851;23;20012;-77
2021/09/15 02:03:26;;;;;;;10.73;8.65;;;;;;;17.83;100.00;100367.94;6367044;23;20032;-77
2021/09/15 02:05:56;;;;;;;12.38;8.90;;;;;;;17.72;100.00;100365.19;6365675;23;20001;-77
2021/09/15 02:08:26;;;;;;;13.02;8.60;;;;;;;17.72;100.00;100365.19;6365999;23;19997;-77
2021/09/15 02:10:57;;;;;;;10.37;8.33;;;;;;;17.77;100.00;100372.78;6366536;23;20012;-77
2021/09/15 02:13:27;;;;;;;11.63;8.60;;;;;;;17.70;100.00;100366.22;6365399;23;20236;-77
2021/09/15 02:15:57;;;;;;;10.95;8.68;;;;;;;17.65;100.00;100371.00;6365821;23;20028;-77
2021/09/15 02:18:28;;;;;;;11.05;9.55;;;;;;;17.60;100.00;100373.06;6365595;23;20021;-77
2021/09/15 02:20:58;;;;;;;13.63;9.23;;;;;;;17.64;100.00;100364.00;6366469;23;20006;-77
2021/09/15 02:23:28;;;;;;;13.03;8.90;;;;;;;17.69;100.00;100364.53;6365734;23;20240;-77
2021/09/15 02:25:58;;;;;;;12.13;9.18;;;;;;;17.66;100.00;100370.03;6365451;23;20711;-77
2021/09/15 02:28:29;;;;;;;12.65;9.43;;;;;;;17.58;100.00;100367.06;6365978;23;20001;-77
2021/09/15 02:30:59;;;;;;;12.02;8.32;;;;;;;17.61;100.00;100369.47;6365189;23;20036;-77
2021/09/15 02:33:29;;;;;;;13.57;9.18;;;;;;;17.60;100.00;100362.50;6365942;23;20080;-77
2021/09/15 02:36:00;;;;;;;12.02;9.25;;;;;;;17.63;100.00;100360.50;6365776;23;20015;-77
2021/09/15 02:38:30;;;;;;;12.45;9.38;;;;;;;17.57;100.00;100357.44;6366479;23;20021;-77
2021/09/15 02:41:00;;;;;;;12.05;9.65;;;;;;;17.62;100.00;100358.00;6365963;23;20005;-77
2021/09/15 02:43:31;;;;;;;12.10;9.35;;;;;;;17.62;100.00;100353.53;6366112;23;20333;-77
2021/09/15 02:46:01;;;;;;;11.93;9.20;;;;;;;17.61;100.00;100345.69;6365507;23;20366;-77
2021/09/15 02:48:31;;;;;;;11.85;9.18;;;;;;;17.61;100.00;100345.69;6366284;23;20005;-77
2021/09/15 02:51:02;;;;;;;9.97;8.17;;;;;;;17.60;100.00;100349.28;6366499;23;20135;-77
2021/09/15 02:53:33;;;;;;;12.02;8.93;;;;;;;17.59;100.00;100344.97;6366055;23;20723;-77
2021/09/15 02:56:03;;;;;;;12.00;9.00;;;;;;;17.55;100.00;100346.13;6365364;23;20002;-77
2021/09/15 02:58:34;;;;;;;11.65;9.02;;;;;;;17.54;100.00;100339.16;6365422;23;20264;-77
2021/09/15 03:01:04;;;;;;;11.63;9.30;;;;;;;17.49;100.00;100341.25;6355868;23;20040;-77
2021/09/15 03:03:35;;;;;;;13.10;10.23;;;;;;;17.40;100.00;100337.44;6365764;23;20261;-76
2021/09/15 03:06:05;;;;;;;13.38;9.30;;;;;;;17.55;100.00;100340.84;6365992;23;20037;-76
2021/09/15 03:08:36;;;;;;;13.73;9.18;;;;;;;17.46;100.00;100336.19;6365429;23;20005;-76
2021/09/15 03:11:06;;;;;;;13.82;10.43;;;;;;;17.35;100.00;100336.88;6365735;23;20005;-76
2021/09/15 03:13:36;;;;;;;11.95;9.60;;;;;;;17.34;100.00;100329.91;6365970;23;20168;-77
2021/09/15 03:16:07;;;;;;;11.73;9.30;;;;;;;17.33;100.00;100330.81;6365197;23;20001;-76
2021/09/15 03:18:37;;;;;;;12.05;10.07;;;;;;;17.32;100.00;100325.66;6365291;23;20086;-77
2021/09/15 03:21:07;;;;;;;12.67;10.20;;;;;;;17.31;100.00;100329.25;6365606;23;20054;-76
2021/09/15 03:23:38;;;;;;;12.57;10.07;;;;;;;17.27;100.00;100319.81;6365840;23;20248;-76
2021/09/15 03:26:08;;;;;;;12.32;9.93;;;;;;;17.35;100.00;100317.56;6365293;23;20009;-76
2021/09/15 03:28:38;;;;;;;14.93;9.85;;;;;;;17.46;100.00;100318.53;6366037;23;20067;-76
2021/09/15 03:31:09;;;;;;;14.73;10.32;;;;;;;17.42;100.00;100309.13;6365269;23;20005;-81
2021/09/15 03:33:39;;;;;;;12.93;9.93;;;;;;;17.42;100.00;100306.47;6364615;23;20012;-81
2021/09/15 03:36:09;;;;;;;13.15;10.05;;;;;;;17.46;100.00;100301.84;6364511;23;20006;-84
2021/09/15 03:38:40;;;;;;;13.10;9.85;;;;;;;17.34;100.00;100302.66;6457524;22;20336;-80
2021/09/15 03:41:11;;;;;;;17.13;10.88;;;;;;;17.34;100.00;100294.72;6366069;23;20088;-80
2021/09/15 03:43:41;;;;;;;14.35;10.85;;;;;;;17.27;100.00;100282.84;6364421;23;20077;-82
2021/09/15 03:46:11;;;;;;;13.18;10.00;;;;;;;17.36;100.00;100279.63;6366744;23;20005;-82
2021/09/15 03:48:42;;;;;;;12.55;10.35;;;;;;;17.28;100.00;100289.84;6367487;23;20456;-77
2021/09/15 03:51:12;;;;;;;13.90;10.88;;;;;;;17.33;100.00;100287.72;6366095;23;20010;-77
2021/09/15 03:53:43;;;;;;;13.20;10.50;;;;;;;17.26;100.00;100278.50;6366616;23;20006;-77
2021/09/15 03:56:13;;;;;;;13.57;10.85;;;;;;;17.30;100.00;100283.47;6367001;23;20135;-78
2021/09/15 03:58:43;;;;;;;13.13;10.77;;;;;;;17.32;100.00;100286.03;6367306;23;20005;-77
2021/09/15 04:01:14;;;;;;;13.63;10.77;;;;;;;17.34;100.00;100289.44;6460188;22;20241;-77
2021/09/15 04:03:45;;;;;;;14.00;10.75;;;;;;;17.31;100.00;100284.34;6363773;23;20706;-77
2021/09/15 04:06:15;;;;;;;13.02;10.55;;;;;;;17.23;100.00;100281.34;6365216;23;20271;-77
2021/09/15 04:08:45;;;;;;;17.03;11.67;;;;;;;17.28;100.00;100287.19;6364842;23;20085;-77
2021/09/15 04:11:16;;;;;;;14.85;10.55;;;;;;;17.33;100.00;100282.44;6365888;23;20248;-77
2021/09/15 04:13:46;;;;;;;13.75;11.10;;;;;;;17.35;100.00;100281.41;6456909;22;20006;-77
2021/09/15 04:16:16;;;;;;;15.35;11.45;;;;;;;17.38;100.00;100280.34;6366196;23;20123;-76
2021/09/15 04:18:47;;;;;;;15.57;11.33;;;;;;;17.58;100.00;100282.47;6366758;23;19994;-77
2021/09/15 04:21:17;;;;;;;13.30;10.85;;;;;;;17.43;100.00;100288.81;6366695;23;20235;-77
2021/09/15 04:24:05;;;;;;;12.90;10.35;;;;;;;17.53;100.00;100279.31;6365487;23;20006;-77
2021/09/15 04:32:13;;;;;;;13.95;11.25;;;;;;;17.60;100.00;100278.78;6366062;23;20021;-77
2021/09/15 04:34:43;;;;;;;15.98;11.90;;;;;;;17.56;100.00;100282.59;6366124;23;20233;-77
2021/09/15 04:37:14;;;;;;;15.53;12.00;;;;;;;17.56;100.00;100282.59;6366903;23;20009;-77
2021/09/15 04:39:44;;;;;;;19.13;11.70;;;;;;;17.59;100.00;100284.16;6366210;23;20244;-77
2021/09/15 04:42:14;;;;;;;14.57;11.80;;;;;;;17.54;100.00;100281.00;6366768;23;20237;-77
2021/09/15 04:44:45;;;;;;;13.98;11.00;;;;;;;17.59;100.00;100277.09;6458463;22;20010;-77
2021/09/15 04:47:15;;;;;;;13.65;10.93;;;;;;;17.58;100.00;100277.19;6366363;23;19997;-77
2021/09/15 04:49:45;;;;;;;14.77;11.77;;;;;;;17.44;100.00;100264.06;6366811;23;20033;-77
2021/09/15 04:52:15;;;;;;;15.13;11.50;;;;;;;17.45;100.00;100271.91;6366420;23;20229;-77
2021/09/15 04:54:46;;;;;;;16.73;12.77;;;;;;;17.35;100.00;100270.00;6366711;23;20261;-77
2021/09/15 04:57:16;;;;;;;15.50;12.00;;;;;;;17.31;100.00;100260.56;6366597;23;20066;-77
2021/09/15 04:59:46;;;;;;;15.95;12.13;;;;;;;17.46;100.00;100257.75;6366817;22;20237;-77
2021/09/15 05:02:17;;;;;;;16.67;12.27;;;;;;;17.35;100.00;100260.25;6366235;23;20086;-77
2021/09/15 05:04:47;;;;;;;15.07;11.60;;;;;;;17.35;100.00;100254.16;6458494;22;20090;-77
2021/09/15 05:07:17;;;;;;;14.40;11.30;;;;;;;17.51;100.00;100244.22;6366103;23;20677;-77
2021/09/15 05:09:47;;;;;;;16.00;11.40;;;;;;;17.43;100.00;100246.53;6366067;23;20576;-77
2021/09/15 05:12:18;;;;;;;14.50;11.52;;;;;;;17.39;100.00;100251.19;6366369;23;20233;-77
2021/09/15 05:14:48;;;;;;;12.95;10.50;;;;;;;17.40;100.00;100247.59;6365467;23;20064;-77
2021/09/15 05:17:18;;;;;;;16.20;11.20;;;;;;;17.41;100.00;100248.44;6366239;23;20029;-77
2021/09/15 05:19:48;;;;;;;13.80;11.60;;;;;;;17.36;100.00;100255.84;6367469;23;20237;-77
2021/09/15 05:22:19;;;;;;;15.57;12.07;;;;;;;17.37;100.00;100255.75;6365595;23;20320;-77
2021/09/15 05:24:49;;;;;;;14.60;11.52;;;;;;;17.50;100.00;100253.09;6360897;23;20244;-77
2021/09/15 05:27:19;;;;;;;15.95;12.27;;;;;;;17.55;100.00;100246.56;6366310;23;20252;-77
2021/09/15 05:29:50;;;;;;;14.50;11.02;;;;;;;17.61;100.00;100255.81;6366089;23;20037;-77
2021/09/15 05:32:20;;;;;;;18.77;12.38;;;;;;;17.52;100.00;100259.94;6364346;23;20345;-77
2021/09/15 05:34:50;;;;;;;13.60;11.40;;;;;;;17.47;100.00;100264.72;6364509;23;20097;-77
2021/09/15 05:37:20;;;;;;;15.32;11.88;;;;;;;17.39;100.00;100255.63;6364645;23;19994;-76
2021/09/15 05:39:51;;;;;;;16.15;12.23;;;;;;;17.39;100.00;100258.28;6366223;23;20002;-77
2021/09/15 05:42:21;;;;;;;15.63;12.37;;;;;;;17.49;100.00;100262.81;6363764;23;20001;-78
2021/09/15 05:44:51;;;;;;;15.43;12.45;;;;;;;17.60;100.00;100264.72;6365453;23;20264;-77
2021/09/15 05:47:22;;;;;;;15.48;11.75;;;;;;;17.65;100.00;100252.88;6458439;22;20055;-76
2021/09/15 05:49:52;;;;;;;16.67;12.07;;;;;;;17.72;100.00;100255.94;6365999;23;20062;-77
2021/09/15 05:52:22;;;;;;;15.65;11.82;;;;;;;17.80;100.00;100261.56;6366540;23;20233;-76
2021/09/15 05:54:53;;;;;;;14.82;11.45;;;;;;;17.82;100.00;100259.66;6365983;23;20086;-77
2021/09/15 05:57:23;;;;;;;15.75;11.38;;;;;;;17.92;100.00;100256.25;6366543;23;20054;-77
2021/09/15 05:59:54;;;;;;;14.52;11.75;;;;;;;18.01;100.00;100250.28;6366352;23;20005;-77
2021/09/15 06:02:24;;;;;;;15.80;12.32;;;;;;;18.03;100.00;100244.91;6366331;23;20006;-77
2021/09/15 06:04:54;;;;;;;15.00;12.03;;;;;;;18.16;100.00;100243.91;6365948;23;20376;-77
2021/09/15 06:07:24;;;;;;;15.33;11.60;;;;;;;18.24;100.00;100246.00;6365125;23;20255;-77
2021/09/15 06:09:55;;;;;;;14.47;11.47;;;;;;;18.29;100.00;100243.91;6366523;23;20268;-77
2021/09/15 06:12:25;;;;;;;14.15;11.00;;;;;;;18.44;100.00;100242.78;6365525;23;20248;-77
2021/09/15 06:14:55;;;;;;;14.53;11.80;;;;;;;18.53;100.00;100236.84;6364424;23;20037;-77
2021/09/15 06:17:25;;;;;;;14.47;11.70;;;;;;;18.69;100.00;100237.41;6366758;23;20229;-77
2021/09/15 06:19:56;;;;;;;15.07;11.13;;;;;;;18.73;100.00;100236.22;6366003;23;20285;-77
2021/09/15 06:22:26;;;;;;;17.23;11.73;;;;;;;18.74;100.00;100233.47;6366131;23;20006;-76
2021/09/15 06:24:58;;;;;;;15.10;11.50;;;;;;;18.93;100.00;100228.47;6365423;23;20001;-76
2021/09/15 06:27:28;;;;;;;14.68;11.45;;;;;;;19.25;100.00;100227.75;6365639;23;20054;-77
2021/09/15 06:29:58;;;;;;;15.07;11.10;;;;;;;19.32;100.00;100218.38;6366602;23;20009;-77
2021/09/15 06:32:29;;;;;;;13.77;10.27;;;;;;;19.61;100.00;100229.38;6365861;23;20005;-77
2021/09/15 06:35:00;;;;;;;14.90;10.55;;;;;;;19.72;100.00;100232.88;6365621;23;20695;-76
2021/09/15 06:37:30;;;;;;;13.88;10.10;;;;;;;19.74;100.00;100230.94;6365732;23;20472;-77
2021/09/15 06:40:00;;;;;;;13.85;10.05;;;;;;;19.76;100.00;100231.66;6364796;23;20489;-77
2021/09/15 06:42:31;;;;;;;11.85;9.30;;;;;;;19.75;100.00;100222.00;6361105;23;20417;-77
2021/09/15 06:45:03;;;;;;;12.83;9.30;;;;;;;19.99;100.00;100225.38;6456284;22;20336;-77
2021/09/15 06:47:44;;;;;;;12.13;9.00;;;;;;;20.11;100.00;100220.94;6365797;23;20245;-76
2021/09/15 06:50:15;;;;;;;14.00;8.73;;;;;;;20.17;100.00;100217.78;6366228;23;20013;-76
2021/09/15 06:52:45;;;;;;;11.75;8.35;;;;;;;20.14;100.00;100218.03;6365398;23;20348;-77
2021/09/15 06:55:15;;;;;;;10.65;8.70;;;;;;;20.13;100.00;100230.47;6365931;23;20002;-77
2021/09/15 06:57:46;;;;;;;10.57;7.80;;;;;;;20.10;100.00;100233.38;6365895;23;20353;-77
2021/09/15 07:00:18;;;;;;;11.97;8.50;;;;;;;19.98;100.00;100229.00;6365586;23;20008;-77
2021/09/15 07:02:49;;;;;;;10.23;7.85;;;;;;;19.93;100.00;100233.81;6365584;23;20268;-77
2021/09/15 07:05:19;;;;;;;10.45;7.78;;;;;;;19.95;100.00;100239.03;6364683;23;20005;-76
2021/09/15 07:07:50;;;;;;;8.63;7.22;;;;;;;19.92;100.00;100234.78;6365760;23;20448;-77
2021/09/15 07:10:20;;;;;;;9.25;7.28;;;;;;;19.98;100.00;100234.28;6366382;23;20055;-78
2021/09/15 07:12:50;;;;;;;9.43;7.80;;;;;;;19.99;100.00;100235.16;6365803;23;20002;-77
2021/09/15 07:15:20;;;;;;;10.93;8.23;;;;;;;20.20;100.00;100239.63;6365720;23;20260;-77
2021/09/15 07:17:51;;;;;;;9.93;8.00;;;;;;;20.08;100.00;100240.59;6365889;23;20322;-77
2021/09/15 07:20:21;;;;;;;9.93;7.63;;;;;;;20.12;100.00;100231.44;6366895;23;20306;-77
2021/09/15 07:22:51;;;;;;;14.73;8.55;;;;;;;20.14;100.00;100229.50;6367254;23;20037;-77
2021/09/15 07:25:22;;;;;;;13.63;8.45;;;;;;;20.25;100.00;100234.78;6367329;23;20001;-77
2021/09/15 07:27:55;;;;;;;10.45;8.30;;;;;;;20.33;100.00;100237.66;6365015;23;20001;-77
2021/09/15 07:30:25;;;;;;;9.77;7.88;;;;;;;20.24;100.00;100234.91;6363817;23;20041;-77
2021/09/15 07:32:56;;;;;;;8.68;6.97;;;;;;;20.25;100.00;100232.13;6364137;23;20028;-77
2021/09/15 07:35:26;;;;;;;10.48;7.75;;;;;;;20.33;100.00;100224.38;6364056;23;20092;-77
2021/09/15 07:37:56;;;;;;;10.00;7.43;;;;;;;20.39;100.00;100223.91;6363313;23;19998;-77
2021/09/15 07:40:26;;;;;;;9.27;6.90;;;;;;;20.42;100.00;100221.00;6364974;23;20586;-78
2021/09/15 07:42:57;;;;;;;8.10;6.70;;;;;;;20.41;100.00;100219.31;6366506;23;20233;-77
2021/09/15 07:45:29;;;;;;;10.07;7.60;;;;;;;20.59;100.00;100217.81;6366673;23;20001;-77
2021/09/15 07:47:59;;;;;;;11.75;8.45;;;;;;;20.48;100.00;100217.00;6366368;23;20005;-77
2021/09/15 07:50:30;;;;;;;10.50;8.52;;;;;;;20.60;100.00;100224.81;6367478;23;20010;-77
2021/09/15 07:53:00;;;;;;;9.07;8.13;;;;;;;20.55;100.00;100216.38;6366716;23;20429;-77
2021/09/15 07:55:31;;;;;;;10.53;7.90;;;;;;;20.61;100.00;100223.81;6365863;23;20005;-80
2021/09/15 07:58:01;;;;;;;9.55;8.13;;;;;;;20.93;100.00;100225.53;6366986;23;20290;-79
2021/09/15 08:00:32;;;;;;;9.95;8.32;;;;;;;20.97;100.00;100220.81;6366581;23;20009;-76
2021/09/15 08:03:02;;;;;;;9.13;7.45;;;;;;;21.25;100.00;100215.69;6367048;23;20410;-80
2021/09/15 08:05:33;;;;;;;9.98;7.30;;;;;;;21.36;100.00;100212.97;6365888;23;20047;-80
2021/09/15 08:08:04;;;;;;;9.93;7.65;;;;;;;21.39;100.00;100222.50;6366003;23;20004;-78
2021/09/15 08:10:34;;;;;;;10.82;7.60;;;;;;;21.42;100.00;100211.59;6366176;23;20363;-77
2021/09/15 08:13:04;;;;;;;10.13;7.68;;;;;;;21.62;100.00;100210.72;6366539;23;20070;-76
2021/09/15 08:15:35;;;;;;;10.18;7.05;;;;;;;22.07;98.51;100225.38;6366208;23;20403;-79
2021/09/15 08:18:05;;;;;;;8.82;6.57;;;;;;;22.25;98.66;100218.44;6366744;23;20012;-78
2021/09/15 08:20:35;;;;;;;8.93;6.93;;;;;;;22.27;96.94;100221.78;6366780;23;20024;-79
2021/09/15 08:23:06;;;;;;;7.53;6.32;;;;;;;21.98;96.98;100215.53;6365745;23;20009;-79
2021/09/15 08:25:36;;;;;;;7.43;5.77;;;;;;;21.92;97.14;100224.88;6366151;23;20059;-77
2021/09/15 08:28:06;;;;;;;8.17;5.97;;;;;;;21.78;98.73;100219.09;6366302;23;20252;-76
2021/09/15 08:30:37;;;;;;;8.70;6.28;;;;;;;21.67;100.00;100213.84;6367083;23;20796;-76
2021/09/15 08:33:07;;;;;;;6.95;5.78;;;;;;;21.75;100.00;100214.03;6366869;23;20005;-77
2021/09/15 08:35:37;;;;;;;8.73;5.87;;;;;;;21.93;100.00;100213.25;6365742;23;20005;-79
2021/09/15 08:38:12;;;;;;;9.18;5.65;;;;;;;22.12;99.46;100208.00;6366461;23;20233;-82
2021/09/15 08:40:42;;;;;;;5.00;4.30;;;;;;;22.12;100.00;100208.00;6366506;23;20005;-79
2021/09/15 08:43:13;;;;;;;7.78;5.47;;;;;;;22.30;98.37;100206.38;6366615;23;20531;-76
2021/09/15 08:45:43;;;;;;;6.53;4.93;;;;;;;22.28;98.11;100202.16;6366050;23;20032;-76
2021/09/15 08:48:18;;;;;;;5.10;4.10;;;;;;;22.32;97.15;100193.78;6366145;23;20506;-76
2021/09/15 08:50:49;;;;;;;5.47;4.33;;;;;;;22.26;99.19;100198.81;6366736;23;20632;-81
2021/09/15 08:53:20;;;;;;;6.72;4.30;;;;;;;22.19;100.00;100202.97;6366322;23;20010;-80
2021/09/15 08:55:50;;;;;;;5.20;4.45;;;;;;;21.97;100.00;100203.19;6366180;23;20063;-79
2021/09/15 08:58:20;;;;;;;7.65;4.72;;;;;;;21.91;100.00;100203.75;6366154;23;20041;-77
2021/09/15 09:00:50;;;;;;;5.83;4.07;;;;;;;21.89;100.00;100205.72;6366618;23;20006;-77
2021/09/15 09:03:33;;;;;;;5.22;3.70;;;;;;;21.87;100.00;100202.31;6366433;23;20240;-77
2021/09/15 09:06:12;;;;;;;6.13;3.90;;;;;;;21.79;100.00;100204.81;6365359;23;20029;-76
2021/09/15 09:08:43;;;;;;;5.05;4.50;;;;;;;21.76;100.00;100208.56;6365517;23;20008;-77
2021/09/15 09:11:14;;;;;;;5.68;4.30;;;;;;;21.73;100.00;100206.19;6366404;23;20018;-78
2021/09/15 09:14:10;;;;;;;6.78;3.97;;;;;;;21.72;100.00;100199.19;6366068;23;20209;-77
2021/09/15 09:16:44;;;;;;;5.05;4.15;;;;;;;21.83;100.00;100192.91;6366527;23;20005;-77
2021/09/15 09:19:19;;;;;;;5.55;4.35;;;;;;;21.84;100.00;100194.59;6366355;23;19994;-78
2021/09/15 09:21:52;;;;;;;5.35;3.70;;;;;;;21.84;100.00;100195.47;6366047;23;20013;-78
2021/09/15 09:24:26;;;;;;;5.72;4.47;;;;;;;21.78;100.00;100203.13;6366123;23;20504;-78
2021/09/15 09:26:59;;;;;;;5.67;4.33;;;;;;;21.82;100.00;100196.56;6367055;23;20326;-79
2021/09/15 09:29:33;;;;;;;6.38;4.95;;;;;;;21.83;100.00;100198.25;6365474;23;20076;-78
2021/09/15 09:32:11;;;;;;;5.47;4.20;;;;;;;21.76;100.00;100199.78;6365574;23;20341;-78
2021/09/15 09:34:49;;;;;;;6.82;4.63;;;;;;;21.80;100.00;100201.19;6365655;23;20066;-77
2021/09/15 09:37:21;;;;;;;6.30;4.88;;;;;;;21.93;100.00;100191.16;6365968;23;20082;-78
2021/09/15 09:39:57;;;;;;;6.25;4.78;;;;;;;22.00;100.00;100184.28;6366680;23;20012;-78
2021/09/15 09:42:30;;;;;;;6.25;5.10;;;;;;;22.09;100.00;100183.50;6365471;23;20005;-77
2021/09/15 09:45:06;;;;;;;5.75;4.57;;;;;;;22.18;100.00;100180.84;6366301;23;20385;-78
2021/09/15 09:50:19;;;;;;;6.07;4.90;;;;;;;22.49;100.00;100182.47;6394414;23;20059;-79
2021/09/15 09:53:02;;;;;;;;;;;;;;;22.62;100.00;100179.53;6368838;22;20519;-80
2021/09/15 09:55:35;;;;;;;7.80;4.90;;;;;;;22.73;100.00;100176.72;6369606;23;20346;-81
2021/09/15 09:58:07;;;;;;;6.60;5.65;;;;;;;22.90;100.00;100175.03;6370842;23;19997;-80
2021/09/15 10:00:38;;;;;;;6.72;5.72;;;;;;;22.91;100.00;100171.38;6367690;23;20023;-80
2021/09/15 10:03:08;;;;;;;6.63;5.53;;;;;;;23.18;100.00;100174.16;6405466;23;20005;-78
2021/09/15 10:05:39;;;;;;;7.85;5.43;;;;;;;22.96;100.00;100178.94;6406617;23;20412;-80
2021/09/15 10:08:11;;;;;;;9.02;5.53;;;;;;;22.96;100.00;100170.94;6370428;22;20013;-81
2021/09/15 10:10:41;;;;;;;7.45;5.28;;;;;;;22.95;100.00;100179.91;6407038;23;20002;-81
2021/09/15 10:13:12;;;;;;;7.90;5.90;;;;;;;22.82;100.00;100169.56;6369857;23;20005;-81
2021/09/15 10:15:46;;;;;;;5.68;4.35;;;;;;;23.09;100.00;100163.47;6370090;22;20027;-81
2021/09/15 10:18:18;;;;;;;6.38;4.80;;;;;;;23.31;100.00;100157.84;6404509;23;20000;-81
2021/09/15 10:20:54;;;;;;;7.15;5.40;;;;;;;23.63;100.00;100152.94;6404432;23;19997;-78
2021/09/15 10:23:48;;;;;;;7.93;5.50;;;;;;;24.25;95.70;100145.88;6368172;23;20005;-80
2021/09/15 10:26:27;;;;;;;6.70;5.35;;;;;;;24.25;94.05;100137.88;6368144;23;20004;-81
2021/09/15 10:29:18;;;;;;;9.02;6.40;;;;;;;24.22;91.71;100138.16;6368229;22;20199;-79
2021/09/15 10:31:53;;;;;;;6.50;4.53;;;;;;;24.72;91.43;100127.84;6369300;23;20005;-80
2021/09/15 10:34:38;;;;;;;7.72;4.93;;;;;;;25.02;92.67;100128.22;6406594;23;20066;-80
2021/09/15 10:37:12;;;;;;;9.13;6.28;;;;;;;25.03;88.89;100127.22;6406760;22;20208;-81
2021/09/15 10:39:58;;;;;;;6.70;5.43;;;;;;;24.92;90.77;100119.44;6369933;22;19997;-81
2021/09/15 10:42:38;;;;;;;6.75;4.45;;;;;;;24.77;90.81;100118.34;6369901;23;20440;-81
2021/09/15 10:45:08;;;;;;;6.20;4.45;;;;;;;24.88;91.56;100113.59;6405965;22;20629;-81
2021/09/15 10:47:46;;;;;;;6.50;5.43;;;;;;;24.86;89.47;100114.75;6370502;23;20310;-81
2021/09/15 10:50:29;;;;;;;6.93;5.38;;;;;;;24.67;89.42;100116.75;6407302;23;20016;-81
2021/09/15 10:53:03;;;;;;;5.05;4.40;;;;;;;24.90;88.74;100110.75;6406366;22;20004;-79
2021/09/15 10:55:37;;;;;;;7.22;5.13;;;;;;;25.00;93.53;100115.00;6369928;23;20009;-81
2021/09/15 10:58:14;;;;;;;5.75;4.32;;;;;;;25.20;92.21;100107.66;6405852;23;20005;-80
2021/09/15 11:00:49;;;;;;;5.63;4.07;;;;;;;25.16;91.68;100106.25;6370324;23;20056;-80
2021/09/15 11:03:34;;;;;;;5.67;4.40;;;;;;;25.21;90.45;100107.50;6369013;23;20009;-79
2021/09/15 11:06:07;;;;;;;4.95;3.90;;;;;;;24.74;94.03;100110.63;6406859;23;20228;-81
2021/09/15 11:08:46;;;;;;;7.70;3.78;;;;;;;25.01;93.42;100102.47;6370189;23;20389;-81
2021/09/15 11:11:22;;;;;;;4.97;3.80;;;;;;;24.88;93.35;100100.22;6407614;23;20005;-80
2021/09/15 11:14:06;;;;;;;4.55;3.60;;;;;;;24.67;93.83;100104.22;6370460;23;20015;-81
2021/09/15 11:16:41;;;;;;;6.10;3.83;;;;;;;24.81;93.85;100095.66;6409302;23;20092;-81
2021/09/15 11:19:16;;;;;;;7.00;4.40;;;;;;;24.78;95.20;100104.00;6369781;23;20013;-80
2021/09/15 11:21:54;;;;;;;6.72;4.18;;;;;;;24.64;96.29;100109.88;6370843;23;20009;-80
2021/09/15 11:24:30;;;;;;;7.03;4.30;;;;;;;24.41;97.90;100103.28;6406293;23;20027;-80
2021/09/15 11:27:07;;;;;;;;;;;;;;;24.39;100.00;100110.63;6372373;23;20012;-81
2021/09/15 11:29:45;;;;;;;5.57;4.30;;;;;;;24.11;100.00;100110.84;6369856;23;19912;-80
2021/09/15 11:32:20;;;;;;;6.97;4.53;;;;;;;23.94;100.00;100104.50;6370262;23;20132;-80
2021/09/15 11:34:52;;;;;;;7.57;4.50;;;;;;;23.90;100.00;100108.44;6405823;23;20005;-81
2021/09/15 11:37:25;;;;;;;7.15;4.10;;;;;;;23.69;100.00;100104.34;6405009;23;20047;-80
2021/09/15 11:39:59;;;;;;;6.18;4.10;;;;;;;23.51;100.00;100116.78;6405466;23;20001;-78